createdAt,value
2024-03-28T00:02:11.190Z,85.29
2024-03-28T00:04:39.243Z,84.62
2024-03-28T00:07:10.623Z,83.99
2024-03-28T00:09:39.726Z,83.85
2024-03-28T00:12:11.094Z,83.49
2024-03-28T00:14:39.004Z,83.31
2024-03-28T00:17:07.118Z,83.09
2024-03-28T00:19:36.358Z,82.96
2024-03-28T00:22:04.938Z,82.60
2024-03-28T00:24:33.163Z,82.56
2024-03-28T00:27:08.627Z,82.50
2024-03-28T00:29:45.649Z,82.40
2024-03-28T00:32:13.997Z,82.37
2024-03-28T00:34:41.976Z,82.37
2024-03-28T00:37:10.063Z,82.12
2024-03-28T00:39:39.319Z,82.09
2024-03-28T00:42:08.863Z,82.06
2024-03-28T00:44:37.041Z,82.09
2024-03-28T00:47:05.366Z,82.23
2024-03-28T00:49:33.544Z,82.21
2024-03-28T00:52:02.053Z,82.25
2024-03-28T00:54:30.215Z,82.39
2024-03-28T00:56:58.288Z,82.52
2024-03-28T00:59:27.634Z,82.61
2024-03-28T01:01:55.892Z,82.74
2024-03-28T01:04:23.920Z,82.70
2024-03-28T01:06:54.377Z,82.72
2024-03-28T01:09:34.179Z,82.85
2024-03-28T01:12:02.482Z,83.05
2024-03-28T01:14:31.919Z,83.14
2024-03-28T01:17:00.164Z,83.31
2024-03-28T01:19:28.568Z,83.48
2024-03-28T01:21:59.695Z,83.57
2024-03-28T01:24:27.865Z,83.81
2024-03-28T01:26:56.332Z,84.02
2024-03-28T01:29:24.311Z,84.07
2024-03-28T01:31:52.345Z,84.12
2024-03-28T01:34:20.378Z,84.16
2024-03-28T01:36:48.390Z,84.25
2024-03-28T01:39:16.651Z,84.50
2024-03-28T01:41:49.027Z,84.72
2024-03-28T01:44:17.951Z,84.77
2024-03-28T01:46:53.554Z,84.86
2024-03-28T01:49:32.591Z,85.05
2024-03-28T01:52:02.531Z,85.14
2024-03-28T01:54:34.402Z,85.17
2024-03-28T01:57:03.695Z,85.14
2024-03-28T01:59:33.006Z,85.16
2024-03-28T02:02:03.338Z,85.38
2024-03-28T02:04:31.489Z,85.47
2024-03-28T02:06:59.601Z,85.50
2024-03-28T02:09:28.500Z,85.45
2024-03-28T02:11:59.746Z,85.60
2024-03-28T02:14:27.896Z,85.55
2024-03-28T02:17:06.219Z,85.73
2024-03-28T02:19:35.497Z,85.79
2024-03-28T02:22:03.896Z,85.81
2024-03-28T02:24:33.065Z,85.95
2024-03-28T02:27:01.170Z,86.19
2024-03-28T02:29:29.489Z,86.20
2024-03-28T02:31:59.538Z,86.35
2024-03-28T02:34:27.617Z,86.51
2024-03-28T02:36:56.523Z,86.60
2024-03-28T02:39:26.271Z,86.77
2024-03-28T02:41:59.942Z,87.07
2024-03-28T02:44:28.964Z,87.33
2024-03-28T02:46:57.051Z,87.42
2024-03-28T02:49:24.904Z,87.50
2024-03-28T02:51:52.985Z,87.43
2024-03-28T02:54:20.936Z,87.53
2024-03-28T02:56:52.633Z,87.71
2024-03-28T02:59:20.526Z,87.73
2024-03-28T03:01:48.565Z,87.83
2024-03-28T03:04:16.606Z,87.94
2024-03-28T03:06:45.528Z,88.10
2024-03-28T03:09:13.679Z,88.20
2024-03-28T03:11:41.656Z,88.28
2024-03-28T03:14:09.698Z,88.59
2024-03-28T03:16:37.821Z,89.20
2024-03-28T03:19:05.962Z,90.62
2024-03-28T03:21:34.043Z,90.75
2024-03-28T03:24:03.758Z,92.65
2024-03-28T03:26:32.262Z,95.42
2024-03-28T03:29:22.232Z,98.15
2024-03-28T03:32:22.401Z,99.90
2024-03-28T03:34:53.009Z,100.00
2024-03-28T03:37:27.042Z,100.00
2024-03-28T03:40:02.805Z,100.00
2024-03-28T03:42:45.076Z,100.00
2024-03-28T03:45:12.931Z,100.00
2024-03-28T03:47:40.823Z,100.00
2024-03-28T03:50:09.171Z,100.00
2024-03-28T03:52:37.025Z,100.00
2024-03-28T03:55:06.548Z,100.00
2024-03-28T03:57:34.485Z,100.00
2024-03-28T04:00:02.579Z,100.00
2024-03-28T04:02:32.881Z,100.00
2024-03-28T04:05:00.850Z,100.00
2024-03-28T04:07:29.151Z,100.00
2024-03-28T04:10:26.038Z,100.00
2024-03-28T04:12:54.815Z,100.00
2024-03-28T04:15:25.398Z,100.00
2024-03-28T04:17:58.520Z,100.00
2024-03-28T04:23:24.929Z,100.00
2024-03-28T04:25:59.733Z,100.00
2024-03-28T04:28:30.983Z,100.00
2024-03-28T04:31:05.317Z,100.00
2024-03-28T04:36:27.784Z,100.00
2024-03-28T04:38:57.146Z,100.00
2024-03-28T04:41:25.048Z,100.00
2024-03-28T04:43:53.155Z,100.00
2024-03-28T04:46:22.054Z,100.00
2024-03-28T04:49:01.822Z,100.00
2024-03-28T04:51:29.810Z,100.00
2024-03-28T04:53:57.739Z,100.00
2024-03-28T04:56:25.694Z,100.00
2024-03-28T04:58:53.975Z,100.00
2024-03-28T05:01:25.994Z,100.00
2024-03-28T05:04:16.696Z,100.00
2024-03-28T05:07:52.047Z,100.00
2024-03-28T05:10:46.695Z,100.00
2024-03-28T05:14:08.792Z,100.00
2024-03-28T05:16:49.766Z,100.00
2024-03-28T05:19:17.979Z,100.00
2024-03-28T05:22:03.345Z,100.00
2024-03-28T05:25:26.465Z,100.00
2024-03-28T05:28:38.819Z,100.00
2024-03-28T05:31:30.124Z,100.00
2024-03-28T05:37:36.426Z,100.00
2024-03-28T05:40:32.756Z,100.00
2024-03-28T05:43:19.830Z,100.00
2024-03-28T05:45:54.814Z,100.00
2024-03-28T05:48:36.562Z,100.00
2024-03-28T05:51:16.324Z,100.00
2024-03-28T05:54:25.715Z,100.00
2024-03-28T05:57:32.933Z,100.00
2024-03-28T06:00:31.425Z,100.00
2024-03-28T06:09:45.275Z,100.00
2024-03-28T06:15:36.496Z,100.00
2024-03-28T06:18:14.529Z,100.00
2024-03-28T06:21:52.253Z,100.00
2024-03-28T06:25:00.187Z,100.00
2024-03-28T06:28:38.749Z,100.00
2024-03-28T06:31:43.887Z,100.00
2024-03-28T06:35:05.501Z,100.00
2024-03-28T06:38:06.970Z,100.00
2024-03-28T06:44:54.606Z,100.00
2024-03-28T06:49:03.729Z,100.00
2024-03-28T06:51:14.034Z,100.00
2024-03-28T06:54:50.577Z,100.00
2024-03-28T06:57:19.499Z,100.00
2024-03-28T06:59:56.489Z,100.00
2024-03-28T07:02:29.692Z,100.00
2024-03-28T07:05:02.665Z,100.00
2024-03-28T07:13:58.833Z,100.00
2024-03-28T07:16:47.598Z,100.00
2024-03-28T07:20:03.690Z,100.00
2024-03-28T07:23:12.679Z,100.00
2024-03-28T07:26:09.336Z,100.00
2024-03-28T07:29:37.425Z,100.00
2024-03-28T07:32:27.506Z,100.00
2024-03-28T07:35:36.774Z,100.00
2024-03-28T07:41:57.206Z,100.00
2024-03-28T07:45:12.226Z,100.00
2024-03-28T07:49:28.791Z,100.00
2024-03-28T07:52:04.450Z,100.00
2024-03-28T07:55:17.722Z,100.00
2024-03-28T07:58:43.524Z,100.00
2024-03-28T08:01:56.841Z,100.00
2024-03-28T08:05:45.098Z,100.00
2024-03-28T08:08:43.741Z,100.00
2024-03-28T08:11:49.854Z,100.00
2024-03-28T08:14:20.555Z,100.00
2024-03-28T08:17:07.076Z,100.00
2024-03-28T08:19:52.565Z,100.00
2024-03-28T08:28:36.823Z,100.00
2024-03-28T08:31:07.562Z,100.00
2024-03-28T08:33:59.115Z,100.00
2024-03-28T08:36:51.778Z,100.00
2024-03-28T08:39:38.041Z,100.00
2024-03-28T08:42:19.064Z,100.00
2024-03-28T08:44:50.154Z,100.00
2024-03-28T08:47:53.487Z,100.00
2024-03-28T08:50:20.220Z,100.00
2024-03-28T08:52:57.326Z,100.00
2024-03-28T08:55:35.133Z,100.00
2024-03-28T08:58:15.187Z,100.00
2024-03-28T09:08:00.618Z,100.00
2024-03-28T09:19:02.749Z,100.00
2024-03-28T09:22:03.976Z,100.00
2024-03-28T09:25:10.778Z,100.00
2024-03-28T09:29:21.692Z,100.00
2024-03-28T09:34:59.538Z,100.00
2024-03-28T09:38:44.100Z,100.00
2024-03-28T09:46:02.765Z,100.00
2024-03-28T09:49:15.434Z,100.00
2024-03-28T09:52:22.702Z,100.00
2024-03-28T09:55:44.803Z,100.00
2024-03-28T10:03:09.616Z,100.00
2024-03-28T10:07:29.783Z,100.00
2024-03-28T10:11:12.777Z,100.00
2024-03-28T10:15:09.575Z,100.00
2024-03-28T10:21:24.198Z,99.84
2024-03-28T10:28:15.629Z,96.20
2024-03-28T10:31:12.254Z,97.41
2024-03-28T10:33:53.747Z,96.38
2024-03-28T10:37:36.673Z,94.76
2024-03-28T10:40:14.142Z,92.01
2024-03-28T10:43:05.574Z,92.06
2024-03-28T10:46:00.323Z,91.69
2024-03-28T10:48:47.764Z,90.25
2024-03-28T10:51:58.200Z,90.99
2024-03-28T10:55:09.297Z,90.15
2024-03-28T10:57:53.105Z,88.86
2024-03-28T11:00:29.607Z,87.58
2024-03-28T11:03:34.520Z,86.00
2024-03-28T11:06:30.968Z,86.33
2024-03-28T11:10:11.242Z,85.04
2024-03-28T11:16:20.689Z,85.47
2024-03-28T11:19:22.286Z,83.95
2024-03-28T11:22:21.145Z,80.28
2024-03-28T11:26:04.087Z,79.21
2024-03-28T11:28:42.673Z,76.87
2024-03-28T11:31:56.863Z,72.47
2024-03-28T11:39:19.924Z,73.76
2024-03-28T11:42:09.824Z,73.19
2024-03-28T12:23:22.118Z,71.02
2024-03-28T12:35:02.788Z,71.55
2024-03-28T12:38:07.793Z,72.55
2024-03-28T12:45:07.956Z,70.77
2024-03-28T12:46:40.523Z,71.13
2024-03-28T12:58:06.164Z,70.87
2024-03-28T13:05:06.346Z,70.02
2024-03-28T13:22:28.526Z,70.46
2024-03-28T13:25:30.452Z,71.39
2024-03-28T13:29:33.417Z,71.45
2024-03-28T13:33:06.097Z,73.01
2024-03-28T13:43:21.913Z,74.83
2024-03-28T13:50:23.969Z,76.23
2024-03-28T13:53:59.341Z,76.74
2024-03-28T14:23:17.458Z,74.43
2024-03-28T14:25:34.138Z,74.05
2024-03-28T14:28:06.732Z,74.70
2024-03-28T14:30:40.805Z,74.78
2024-03-28T14:33:24.173Z,73.72
2024-03-28T14:37:10.634Z,71.64
2024-03-28T14:40:39.632Z,71.80
2024-03-28T14:42:45.650Z,70.32
2024-03-28T14:45:39.551Z,69.19
2024-03-28T14:48:17.158Z,69.78
2024-03-28T14:50:45.435Z,70.32
2024-03-28T14:56:07.132Z,71.00
2024-03-28T14:56:27.304Z,70.71
2024-03-28T15:03:27.329Z,73.24
2024-03-28T15:06:07.277Z,73.79
2024-03-28T15:08:37.124Z,74.02
2024-03-28T15:11:19.265Z,74.24
2024-03-28T15:13:47.609Z,74.42
2024-03-28T15:16:16.349Z,74.45
2024-03-28T15:18:59.044Z,74.95
2024-03-28T15:21:54.216Z,75.21
2024-03-28T15:31:56.242Z,75.31
2024-03-28T15:34:58.744Z,75.70
2024-03-28T15:37:33.823Z,75.64
2024-03-28T15:40:31.145Z,75.29
2024-03-28T15:48:22.163Z,76.40
2024-03-28T15:54:16.377Z,77.57
2024-03-28T15:57:08.570Z,78.01
2024-03-28T16:00:07.894Z,78.93
2024-03-28T16:03:19.799Z,79.40
2024-03-28T16:06:33.564Z,79.89
2024-03-28T16:09:23.986Z,80.52
2024-03-28T16:13:05.329Z,81.18
2024-03-28T16:15:51.591Z,81.54
2024-03-28T16:18:45.445Z,81.96
2024-03-28T16:21:17.775Z,82.34
2024-03-28T16:27:06.612Z,83.32
2024-03-28T16:29:51.616Z,83.80
2024-03-28T16:32:27.655Z,84.32
2024-03-28T16:35:12.187Z,84.97
2024-03-28T16:41:02.790Z,86.23
2024-03-28T16:45:13.251Z,86.94
2024-03-28T16:47:41.498Z,86.98
2024-03-28T16:50:46.460Z,86.99
2024-03-28T16:53:32.698Z,87.15
2024-03-28T16:56:04.086Z,87.20
2024-03-28T17:01:51.742Z,87.88
2024-03-28T17:04:27.348Z,88.10
2024-03-28T17:07:52.181Z,88.38
2024-03-28T17:10:27.404Z,88.57
2024-03-28T17:13:15.450Z,88.78
2024-03-28T17:15:59.416Z,88.92
2024-03-28T17:18:32.675Z,89.10
2024-03-28T17:21:07.514Z,89.35
2024-03-28T17:28:41.569Z,90.70
2024-03-28T17:32:22.868Z,91.52
2024-03-28T17:35:30.447Z,92.38
2024-03-28T17:42:23.902Z,91.55
2024-03-28T17:53:36.876Z,91.15
2024-03-28T18:00:47.466Z,90.98
2024-03-28T18:05:11.451Z,92.67
2024-03-28T18:08:18.855Z,95.51
2024-03-28T18:12:13.508Z,98.78
2024-03-28T18:19:20.919Z,100.00
2024-03-28T18:23:35.561Z,100.00
2024-03-28T18:25:40.543Z,100.00
2024-03-28T18:28:39.919Z,100.00
2024-03-28T18:31:30.840Z,100.00
2024-03-28T18:34:07.623Z,100.00
2024-03-28T18:36:36.609Z,100.00
2024-03-28T19:02:39.009Z,100.00
2024-03-28T19:05:07.494Z,100.00
2024-03-28T19:07:36.031Z,100.00
2024-03-28T19:10:09.738Z,100.00
2024-03-28T19:12:41.314Z,100.00
2024-03-28T19:15:10.154Z,100.00
2024-03-28T19:17:39.786Z,100.00
2024-03-28T19:20:08.370Z,100.00
2024-03-28T19:22:41.248Z,100.00
2024-03-28T19:25:38.521Z,100.00
2024-03-28T19:28:12.415Z,100.00
2024-03-28T19:30:48.540Z,100.00
2024-03-28T19:33:27.504Z,100.00
2024-03-28T19:36:35.998Z,100.00
2024-03-28T19:43:08.007Z,100.00
2024-03-28T19:46:32.054Z,100.00
2024-03-28T19:49:11.715Z,100.00
2024-03-28T19:51:56.089Z,100.00
2024-03-28T19:54:29.859Z,100.00
2024-03-28T19:57:05.093Z,100.00
2024-03-28T19:59:36.731Z,100.00
2024-03-28T20:02:22.827Z,100.00
2024-03-28T20:05:13.988Z,100.00
2024-03-28T20:07:49.917Z,100.00
2024-03-28T20:10:32.766Z,100.00
2024-03-28T20:13:12.789Z,100.00
2024-03-28T20:15:48.044Z,100.00
2024-03-28T20:18:16.171Z,100.00
2024-03-28T20:20:45.591Z,100.00
2024-03-28T20:23:17.284Z,100.00
2024-03-28T20:25:45.426Z,100.00
2024-03-28T20:28:13.678Z,100.00
2024-03-28T20:30:41.772Z,100.00
2024-03-28T20:33:12.506Z,100.00
2024-03-28T20:35:46.152Z,100.00
2024-03-28T20:38:16.739Z,100.00
2024-03-28T20:40:54.303Z,100.00
2024-03-28T20:43:22.410Z,100.00
2024-03-28T20:46:04.063Z,100.00
2024-03-28T20:48:38.514Z,100.00
2024-03-28T20:51:20.793Z,100.00
2024-03-28T20:53:52.240Z,100.00
2024-03-28T20:56:23.754Z,100.00
2024-03-28T20:58:52.546Z,100.00
2024-03-28T21:01:21.021Z,100.00
2024-03-28T21:03:49.241Z,100.00
2024-03-28T21:06:35.702Z,100.00
2024-03-28T21:09:22.060Z,100.00
2024-03-28T21:11:50.087Z,100.00
2024-03-28T21:14:18.345Z,100.00
2024-03-28T21:16:46.652Z,100.00
2024-03-28T21:19:27.489Z,100.00
2024-03-28T21:21:55.676Z,100.00
2024-03-28T21:24:23.664Z,100.00
2024-03-28T21:26:56.289Z,100.00
2024-03-28T21:29:28.004Z,100.00
2024-03-28T21:31:58.268Z,100.00
2024-03-28T21:34:26.601Z,100.00
2024-03-28T21:37:18.871Z,100.00
2024-03-28T21:39:50.915Z,100.00
2024-03-28T21:42:19.468Z,100.00
2024-03-28T21:44:59.206Z,100.00
2024-03-28T21:47:38.830Z,100.00
2024-03-28T21:50:09.215Z,100.00
2024-03-28T21:52:40.699Z,100.00
2024-03-28T21:55:14.152Z,100.00
2024-03-28T21:57:47.292Z,100.00
2024-03-28T22:00:15.740Z,100.00
2024-03-28T22:02:49.293Z,100.00
2024-03-28T22:05:20.164Z,100.00
2024-03-28T22:07:51.391Z,100.00
2024-03-28T22:10:23.771Z,100.00
2024-03-28T22:12:51.777Z,100.00
2024-03-28T22:15:23.718Z,100.00
2024-03-28T22:17:55.185Z,100.00
2024-03-28T22:20:25.727Z,100.00
2024-03-28T22:22:56.982Z,100.00
2024-03-28T22:25:28.602Z,100.00
2024-03-28T22:27:56.931Z,100.00
2024-03-28T22:30:25.085Z,100.00
2024-03-28T22:33:02.460Z,100.00
2024-03-28T22:35:32.996Z,100.00
2024-03-28T22:38:10.250Z,100.00
2024-03-28T22:40:56.741Z,100.00
2024-03-28T22:43:31.168Z,100.00
2024-03-28T22:46:00.679Z,100.00
2024-03-28T22:48:38.070Z,100.00
2024-03-28T22:51:13.243Z,100.00
2024-03-28T22:53:47.167Z,100.00
2024-03-28T22:56:24.284Z,100.00
2024-03-28T22:58:57.856Z,100.00
2024-03-28T23:01:28.913Z,100.00
2024-03-28T23:03:57.043Z,100.00
2024-03-28T23:06:32.986Z,100.00
2024-03-28T23:09:03.886Z,100.00
2024-03-28T23:11:42.229Z,100.00
2024-03-28T23:14:14.661Z,100.00
2024-03-28T23:16:45.429Z,100.00
2024-03-28T23:19:14.879Z,100.00
2024-03-28T23:21:46.050Z,100.00
2024-03-28T23:27:24.747Z,100.00
2024-03-28T23:30:18.632Z,100.00
2024-03-28T23:33:05.440Z,100.00
2024-03-28T23:35:35.519Z,100.00
2024-03-28T23:38:10.591Z,100.00
2024-03-28T23:43:48.897Z,100.00
2024-03-28T23:46:26.580Z,100.00
2024-03-28T23:49:14.226Z,100.00
2024-03-28T23:51:50.290Z,100.00
2024-03-28T23:54:26.155Z,100.00
2024-03-28T23:57:02.250Z,100.00
